sensor_id;sensor_type;location;lat;lon;timestamp;P1;durP1;ratioP1;P2;durP2;ratioP2
75785;SDS011;64402;44.708;37.644;2022-11-23T00:01:27;7.25;;;1.25;;
75785;SDS011;64402;44.708;37.644;2022-11-23T00:03:56;3.83;;;1.25;;
75785;SDS011;64402;44.708;37.644;2022-11-23T00:06:24;3.85;;;1.15;;
75785;SDS011;64402;44.708;37.644;2022-11-23T00:08:51;3.10;;;1.10;;
75785;SDS011;64402;44.708;37.644;2022-11-23T00:11:19;3.85;;;1.10;;
75785;SDS011;64402;44.708;37.644;2022-11-23T00:13:47;5.05;;;1.23;;
75785;SDS011;64402;44.708;37.644;2022-11-23T00:16:15;3.65;;;1.30;;
75785;SDS011;64402;44.708;37.644;2022-11-23T00:18:43;3.83;;;1.30;;
75785;SDS011;64402;44.708;37.644;2022-11-23T00:21:11;3.50;;;1.05;;
75785;SDS011;64402;44.708;37.644;2022-11-23T00:23:40;4.65;;;1.33;;
75785;SDS011;64402;44.708;37.644;2022-11-23T00:26:07;4.38;;;1.10;;
75785;SDS011;64402;44.708;37.644;2022-11-23T00:28:34;7.00;;;1.20;;
75785;SDS011;64402;44.708;37.644;2022-11-23T00:31:04;3.65;;;1.08;;
75785;SDS011;64402;44.708;37.644;2022-11-23T00:33:34;6.28;;;1.60;;
75785;SDS011;64402;44.708;37.644;2022-11-23T00:36:02;3.92;;;1.33;;
75785;SDS011;64402;44.708;37.644;2022-11-23T00:38:33;4.68;;;1.63;;
75785;SDS011;64402;44.708;37.644;2022-11-23T00:41:01;6.07;;;1.35;;
75785;SDS011;64402;44.708;37.644;2022-11-23T00:43:29;4.10;;;1.40;;
75785;SDS011;64402;44.708;37.644;2022-11-23T00:48:47;3.75;;;1.13;;
75785;SDS011;64402;44.708;37.644;2022-11-23T00:51:16;4.80;;;1.38;;
75785;SDS011;64402;44.708;37.644;2022-11-23T00:53:45;3.55;;;1.20;;
75785;SDS011;64402;44.708;37.644;2022-11-23T00:56:12;3.15;;;1.13;;
75785;SDS011;64402;44.708;37.644;2022-11-23T00:58:38;5.18;;;1.70;;
75785;SDS011;64402;44.708;37.644;2022-11-23T01:01:12;4.65;;;1.60;;
75785;SDS011;64402;44.708;37.644;2022-11-23T01:03:41;4.15;;;1.40;;
75785;SDS011;64402;44.708;37.644;2022-11-23T01:06:13;5.53;;;1.15;;
75785;SDS011;64402;44.708;37.644;2022-11-23T01:08:51;3.63;;;1.17;;
75785;SDS011;64402;44.708;37.644;2022-11-23T01:11:19;3.63;;;1.25;;
75785;SDS011;64402;44.708;37.644;2022-11-23T01:13:47;4.88;;;1.20;;
75785;SDS011;64402;44.708;37.644;2022-11-23T01:16:15;5.13;;;1.30;;
75785;SDS011;64402;44.708;37.644;2022-11-23T01:18:58;4.30;;;1.60;;
75785;SDS011;64402;44.708;37.644;2022-11-23T01:21:27;5.55;;;1.60;;
75785;SDS011;64402;44.708;37.644;2022-11-23T01:23:54;3.58;;;1.30;;
75785;SDS011;64402;44.708;37.644;2022-11-23T01:26:22;5.70;;;1.85;;
75785;SDS011;64402;44.708;37.644;2022-11-23T01:28:48;6.93;;;1.55;;
75785;SDS011;64402;44.708;37.644;2022-11-23T01:31:16;6.00;;;1.50;;
75785;SDS011;64402;44.708;37.644;2022-11-23T01:33:53;11.55;;;1.60;;
75785;SDS011;64402;44.708;37.644;2022-11-23T01:36:30;5.28;;;1.45;;
75785;SDS011;64402;44.708;37.644;2022-11-23T01:38:59;5.55;;;1.50;;
75785;SDS011;64402;44.708;37.644;2022-11-23T01:41:28;8.23;;;1.63;;
75785;SDS011;64402;44.708;37.644;2022-11-23T01:43:56;4.95;;;1.58;;
75785;SDS011;64402;44.708;37.644;2022-11-23T01:46:23;5.40;;;1.35;;
75785;SDS011;64402;44.708;37.644;2022-11-23T01:48:56;4.60;;;1.50;;
75785;SDS011;64402;44.708;37.644;2022-11-23T01:51:34;3.38;;;1.20;;
75785;SDS011;64402;44.708;37.644;2022-11-23T01:54:08;7.13;;;1.83;;
75785;SDS011;64402;44.708;37.644;2022-11-23T01:56:43;8.23;;;1.60;;
75785;SDS011;64402;44.708;37.644;2022-11-23T01:59:14;5.93;;;1.40;;
75785;SDS011;64402;44.708;37.644;2022-11-23T02:01:42;7.68;;;1.20;;
75785;SDS011;64402;44.708;37.644;2022-11-23T02:04:10;7.15;;;2.00;;
75785;SDS011;64402;44.708;37.644;2022-11-23T02:06:39;3.90;;;1.40;;
75785;SDS011;64402;44.708;37.644;2022-11-23T02:09:10;5.63;;;1.75;;
75785;SDS011;64402;44.708;37.644;2022-11-23T02:11:36;5.53;;;1.80;;
75785;SDS011;64402;44.708;37.644;2022-11-23T02:14:03;6.65;;;1.90;;
75785;SDS011;64402;44.708;37.644;2022-11-23T02:16:29;5.57;;;2.20;;
75785;SDS011;64402;44.708;37.644;2022-11-23T02:18:56;6.50;;;2.17;;
75785;SDS011;64402;44.708;37.644;2022-11-23T02:21:22;6.45;;;2.50;;
75785;SDS011;64402;44.708;37.644;2022-11-23T02:24:51;7.07;;;2.80;;
75785;SDS011;64402;44.708;37.644;2022-11-23T02:26:58;12.68;;;2.60;;
75785;SDS011;64402;44.708;37.644;2022-11-23T02:29:26;8.75;;;2.20;;
75785;SDS011;64402;44.708;37.644;2022-11-23T02:31:54;5.30;;;1.77;;
75785;SDS011;64402;44.708;37.644;2022-11-23T02:34:20;6.45;;;1.95;;
75785;SDS011;64402;44.708;37.644;2022-11-23T02:36:48;5.95;;;1.83;;
75785;SDS011;64402;44.708;37.644;2022-11-23T02:41:52;8.45;;;2.92;;
75785;SDS011;64402;44.708;37.644;2022-11-23T02:44:37;5.57;;;2.40;;
75785;SDS011;64402;44.708;37.644;2022-11-23T02:47:09;10.30;;;3.20;;
75785;SDS011;64402;44.708;37.644;2022-11-23T02:49:36;10.63;;;2.78;;
75785;SDS011;64402;44.708;37.644;2022-11-23T02:52:07;8.05;;;2.30;;
75785;SDS011;64402;44.708;37.644;2022-11-23T02:54:34;9.57;;;2.75;;
75785;SDS011;64402;44.708;37.644;2022-11-23T02:57:01;7.03;;;2.33;;
75785;SDS011;64402;44.708;37.644;2022-11-23T02:59:27;9.32;;;2.50;;
75785;SDS011;64402;44.708;37.644;2022-11-23T03:01:57;10.68;;;2.42;;
75785;SDS011;64402;44.708;37.644;2022-11-23T03:04:24;10.30;;;2.22;;
75785;SDS011;64402;44.708;37.644;2022-11-23T03:06:51;7.68;;;2.35;;
75785;SDS011;64402;44.708;37.644;2022-11-23T03:09:17;7.07;;;2.03;;
75785;SDS011;64402;44.708;37.644;2022-11-23T03:11:44;6.22;;;2.03;;
75785;SDS011;64402;44.708;37.644;2022-11-23T03:14:10;6.05;;;2.13;;
75785;SDS011;64402;44.708;37.644;2022-11-23T03:16:37;6.15;;;2.30;;
75785;SDS011;64402;44.708;37.644;2022-11-23T03:19:03;5.30;;;1.92;;
75785;SDS011;64402;44.708;37.644;2022-11-23T03:21:30;13.45;;;2.05;;
75785;SDS011;64402;44.708;37.644;2022-11-23T03:23:57;6.65;;;2.00;;
75785;SDS011;64402;44.708;37.644;2022-11-23T03:26:23;7.22;;;2.28;;
75785;SDS011;64402;44.708;37.644;2022-11-23T03:28:50;8.95;;;2.17;;
75785;SDS011;64402;44.708;37.644;2022-11-23T03:31:16;10.68;;;2.70;;
75785;SDS011;64402;44.708;37.644;2022-11-23T03:33:43;10.85;;;2.30;;
75785;SDS011;64402;44.708;37.644;2022-11-23T03:36:09;7.25;;;2.50;;
75785;SDS011;64402;44.708;37.644;2022-11-23T03:38:36;8.93;;;2.60;;
75785;SDS011;64402;44.708;37.644;2022-11-23T03:41:03;7.35;;;2.50;;
75785;SDS011;64402;44.708;37.644;2022-11-23T03:43:29;12.77;;;2.53;;
75785;SDS011;64402;44.708;37.644;2022-11-23T03:45:56;5.90;;;2.58;;
75785;SDS011;64402;44.708;37.644;2022-11-23T03:48:23;5.53;;;2.17;;
75785;SDS011;64402;44.708;37.644;2022-11-23T03:50:49;7.78;;;2.20;;
75785;SDS011;64402;44.708;37.644;2022-11-23T03:53:16;6.15;;;2.33;;
75785;SDS011;64402;44.708;37.644;2022-11-23T03:55:44;8.95;;;2.70;;
75785;SDS011;64402;44.708;37.644;2022-11-23T03:58:11;11.80;;;3.08;;
75785;SDS011;64402;44.708;37.644;2022-11-23T04:00:38;11.57;;;3.83;;
75785;SDS011;64402;44.708;37.644;2022-11-23T04:03:04;7.22;;;2.75;;
75785;SDS011;64402;44.708;37.644;2022-11-23T04:05:31;7.72;;;2.17;;
75785;SDS011;64402;44.708;37.644;2022-11-23T04:07:58;6.68;;;2.42;;
75785;SDS011;64402;44.708;37.644;2022-11-23T04:10:24;7.95;;;2.13;;
75785;SDS011;64402;44.708;37.644;2022-11-23T04:12:51;10.63;;;2.58;;
75785;SDS011;64402;44.708;37.644;2022-11-23T04:15:18;7.03;;;2.05;;
75785;SDS011;64402;44.708;37.644;2022-11-23T04:17:45;7.25;;;2.50;;
75785;SDS011;64402;44.708;37.644;2022-11-23T04:20:12;7.25;;;2.60;;
75785;SDS011;64402;44.708;37.644;2022-11-23T04:22:38;7.88;;;2.63;;
75785;SDS011;64402;44.708;37.644;2022-11-23T04:25:05;7.90;;;2.55;;
75785;SDS011;64402;44.708;37.644;2022-11-23T04:27:32;6.88;;;2.50;;
75785;SDS011;64402;44.708;37.644;2022-11-23T04:29:59;9.13;;;3.05;;
75785;SDS011;64402;44.708;37.644;2022-11-23T04:32:26;9.45;;;2.80;;
75785;SDS011;64402;44.708;37.644;2022-11-23T04:34:52;8.18;;;2.70;;
75785;SDS011;64402;44.708;37.644;2022-11-23T04:37:19;10.25;;;3.25;;
75785;SDS011;64402;44.708;37.644;2022-11-23T04:39:45;9.70;;;2.67;;
75785;SDS011;64402;44.708;37.644;2022-11-23T04:42:12;11.93;;;3.28;;
75785;SDS011;64402;44.708;37.644;2022-11-23T04:44:39;17.17;;;3.90;;
75785;SDS011;64402;44.708;37.644;2022-11-23T04:47:06;12.05;;;3.50;;
75785;SDS011;64402;44.708;37.644;2022-11-23T04:49:33;10.50;;;3.95;;
75785;SDS011;64402;44.708;37.644;2022-11-23T04:51:59;11.50;;;3.60;;
75785;SDS011;64402;44.708;37.644;2022-11-23T04:54:25;18.00;;;3.92;;
75785;SDS011;64402;44.708;37.644;2022-11-23T04:56:52;11.35;;;3.05;;
75785;SDS011;64402;44.708;37.644;2022-11-23T04:59:19;10.60;;;3.53;;
75785;SDS011;64402;44.708;37.644;2022-11-23T05:01:45;8.73;;;3.20;;
75785;SDS011;64402;44.708;37.644;2022-11-23T05:04:12;9.35;;;2.67;;
75785;SDS011;64402;44.708;37.644;2022-11-23T05:06:38;8.90;;;3.25;;
75785;SDS011;64402;44.708;37.644;2022-11-23T05:09:05;12.07;;;3.35;;
75785;SDS011;64402;44.708;37.644;2022-11-23T05:11:31;10.07;;;3.47;;
75785;SDS011;64402;44.708;37.644;2022-11-23T05:13:58;8.23;;;3.20;;
75785;SDS011;64402;44.708;37.644;2022-11-23T05:16:24;10.10;;;3.60;;
75785;SDS011;64402;44.708;37.644;2022-11-23T05:18:51;11.60;;;3.65;;
75785;SDS011;64402;44.708;37.644;2022-11-23T05:21:17;9.35;;;3.92;;
75785;SDS011;64402;44.708;37.644;2022-11-23T05:23:44;13.73;;;3.38;;
75785;SDS011;64402;44.708;37.644;2022-11-23T05:26:10;11.18;;;4.03;;
75785;SDS011;64402;44.708;37.644;2022-11-23T05:28:37;11.75;;;3.65;;
75785;SDS011;64402;44.708;37.644;2022-11-23T05:31:03;8.20;;;3.20;;
75785;SDS011;64402;44.708;37.644;2022-11-23T05:33:30;9.30;;;2.70;;
75785;SDS011;64402;44.708;37.644;2022-11-23T05:35:57;8.05;;;2.83;;
75785;SDS011;64402;44.708;37.644;2022-11-23T05:38:23;6.75;;;2.28;;
75785;SDS011;64402;44.708;37.644;2022-11-23T05:40:50;7.30;;;2.03;;
75785;SDS011;64402;44.708;37.644;2022-11-23T05:43:16;11.50;;;2.30;;
75785;SDS011;64402;44.708;37.644;2022-11-23T05:45:43;8.65;;;2.90;;
75785;SDS011;64402;44.708;37.644;2022-11-23T05:48:09;13.82;;;2.67;;
75785;SDS011;64402;44.708;37.644;2022-11-23T05:50:36;9.20;;;2.20;;
75785;SDS011;64402;44.708;37.644;2022-11-23T05:53:03;8.90;;;2.65;;
75785;SDS011;64402;44.708;37.644;2022-11-23T05:55:29;8.98;;;2.67;;
75785;SDS011;64402;44.708;37.644;2022-11-23T05:57:57;9.80;;;2.50;;
75785;SDS011;64402;44.708;37.644;2022-11-23T06:00:23;7.55;;;2.55;;
75785;SDS011;64402;44.708;37.644;2022-11-23T06:02:50;7.68;;;2.17;;
75785;SDS011;64402;44.708;37.644;2022-11-23T06:05:16;8.45;;;3.50;;
75785;SDS011;64402;44.708;37.644;2022-11-23T06:07:44;15.10;;;4.80;;
75785;SDS011;64402;44.708;37.644;2022-11-23T06:10:10;8.60;;;2.10;;
75785;SDS011;64402;44.708;37.644;2022-11-23T06:12:37;9.85;;;2.72;;
75785;SDS011;64402;44.708;37.644;2022-11-23T06:15:04;8.68;;;2.10;;
75785;SDS011;64402;44.708;37.644;2022-11-23T06:17:31;5.40;;;2.08;;
75785;SDS011;64402;44.708;37.644;2022-11-23T06:19:57;9.45;;;2.13;;
75785;SDS011;64402;44.708;37.644;2022-11-23T06:22:24;15.25;;;2.50;;
75785;SDS011;64402;44.708;37.644;2022-11-23T06:24:50;6.00;;;2.17;;
75785;SDS011;64402;44.708;37.644;2022-11-23T06:27:17;8.57;;;2.70;;
75785;SDS011;64402;44.708;37.644;2022-11-23T06:29:43;12.68;;;2.63;;
75785;SDS011;64402;44.708;37.644;2022-11-23T06:32:11;9.90;;;2.55;;
75785;SDS011;64402;44.708;37.644;2022-11-23T06:34:38;13.38;;;2.67;;
75785;SDS011;64402;44.708;37.644;2022-11-23T06:37:04;11.43;;;2.78;;
75785;SDS011;64402;44.708;37.644;2022-11-23T06:39:31;7.13;;;2.15;;
75785;SDS011;64402;44.708;37.644;2022-11-23T06:41:57;9.95;;;2.63;;
75785;SDS011;64402;44.708;37.644;2022-11-23T06:44:24;9.55;;;2.50;;
75785;SDS011;64402;44.708;37.644;2022-11-23T06:46:50;9.05;;;2.80;;
75785;SDS011;64402;44.708;37.644;2022-11-23T06:49:17;11.38;;;3.30;;
75785;SDS011;64402;44.708;37.644;2022-11-23T06:51:45;10.65;;;3.20;;
75785;SDS011;64402;44.708;37.644;2022-11-23T06:54:11;12.98;;;3.60;;
75785;SDS011;64402;44.708;37.644;2022-11-23T06:56:38;8.60;;;3.05;;
75785;SDS011;64402;44.708;37.644;2022-11-23T06:59:04;9.18;;;2.90;;
75785;SDS011;64402;44.708;37.644;2022-11-23T07:01:31;8.15;;;2.40;;
75785;SDS011;64402;44.708;37.644;2022-11-23T07:03:57;10.18;;;2.50;;
75785;SDS011;64402;44.708;37.644;2022-11-23T07:06:24;12.45;;;2.75;;
75785;SDS011;64402;44.708;37.644;2022-11-23T07:08:52;8.90;;;1.98;;
75785;SDS011;64402;44.708;37.644;2022-11-23T07:11:20;6.63;;;1.50;;
75785;SDS011;64402;44.708;37.644;2022-11-23T07:13:46;8.10;;;1.67;;
75785;SDS011;64402;44.708;37.644;2022-11-23T07:16:13;2.80;;;1.08;;
75785;SDS011;64402;44.708;37.644;2022-11-23T07:18:39;4.05;;;1.08;;
75785;SDS011;64402;44.708;37.644;2022-11-23T07:21:06;2.95;;;0.73;;
75785;SDS011;64402;44.708;37.644;2022-11-23T07:23:32;4.32;;;0.75;;
75785;SDS011;64402;44.708;37.644;2022-11-23T07:26:03;4.10;;;0.63;;
75785;SDS011;64402;44.708;37.644;2022-11-23T07:28:30;6.65;;;0.95;;
75785;SDS011;64402;44.708;37.644;2022-11-23T07:30:56;1.35;;;0.63;;
75785;SDS011;64402;44.708;37.644;2022-11-23T07:33:22;1.77;;;0.82;;
75785;SDS011;64402;44.708;37.644;2022-11-23T07:35:49;1.42;;;0.60;;
75785;SDS011;64402;44.708;37.644;2022-11-23T07:38:15;5.43;;;1.05;;
75785;SDS011;64402;44.708;37.644;2022-11-23T07:40:42;2.85;;;1.10;;
75785;SDS011;64402;44.708;37.644;2022-11-23T07:43:09;2.85;;;0.90;;
75785;SDS011;64402;44.708;37.644;2022-11-23T07:45:35;10.70;;;0.98;;
75785;SDS011;64402;44.708;37.644;2022-11-23T07:48:03;4.25;;;0.90;;
75785;SDS011;64402;44.708;37.644;2022-11-23T07:50:31;5.97;;;1.13;;
75785;SDS011;64402;44.708;37.644;2022-11-23T07:53:00;4.82;;;0.88;;
75785;SDS011;64402;44.708;37.644;2022-11-23T07:55:27;2.28;;;0.70;;
75785;SDS011;64402;44.708;37.644;2022-11-23T07:57:55;2.67;;;0.70;;
75785;SDS011;64402;44.708;37.644;2022-11-23T08:00:23;5.78;;;0.80;;
75785;SDS011;64402;44.708;37.644;2022-11-23T08:02:51;2.92;;;0.85;;
75785;SDS011;64402;44.708;37.644;2022-11-23T08:05:17;3.40;;;0.90;;
75785;SDS011;64402;44.708;37.644;2022-11-23T08:07:44;5.53;;;1.10;;
75785;SDS011;64402;44.708;37.644;2022-11-23T08:10:11;4.72;;;1.27;;
75785;SDS011;64402;44.708;37.644;2022-11-23T08:12:38;5.93;;;1.10;;
75785;SDS011;64402;44.708;37.644;2022-11-23T08:15:05;5.70;;;1.48;;
75785;SDS011;64402;44.708;37.644;2022-11-23T08:17:32;8.35;;;3.45;;
75785;SDS011;64402;44.708;37.644;2022-11-23T08:19:59;5.13;;;1.30;;
75785;SDS011;64402;44.708;37.644;2022-11-23T08:22:26;3.15;;;0.95;;
75785;SDS011;64402;44.708;37.644;2022-11-23T08:24:52;4.13;;;1.00;;
75785;SDS011;64402;44.708;37.644;2022-11-23T08:27:19;3.60;;;0.90;;
75785;SDS011;64402;44.708;37.644;2022-11-23T08:29:45;2.92;;;1.05;;
75785;SDS011;64402;44.708;37.644;2022-11-23T08:32:11;5.90;;;0.98;;
75785;SDS011;64402;44.708;37.644;2022-11-23T08:34:38;3.80;;;1.20;;
75785;SDS011;64402;44.708;37.644;2022-11-23T08:37:06;2.65;;;0.90;;
75785;SDS011;64402;44.708;37.644;2022-11-23T08:39:33;7.20;;;1.30;;
75785;SDS011;64402;44.708;37.644;2022-11-23T08:41:59;3.08;;;1.02;;
75785;SDS011;64402;44.708;37.644;2022-11-23T08:44:26;2.65;;;0.90;;
75785;SDS011;64402;44.708;37.644;2022-11-23T08:46:53;4.00;;;1.10;;
75785;SDS011;64402;44.708;37.644;2022-11-23T08:49:19;5.85;;;1.23;;
75785;SDS011;64402;44.708;37.644;2022-11-23T08:51:46;2.80;;;0.98;;
75785;SDS011;64402;44.708;37.644;2022-11-23T08:54:12;6.30;;;1.30;;
75785;SDS011;64402;44.708;37.644;2022-11-23T08:56:39;3.97;;;1.10;;
75785;SDS011;64402;44.708;37.644;2022-11-23T08:59:05;4.57;;;1.50;;
75785;SDS011;64402;44.708;37.644;2022-11-23T09:01:33;6.00;;;1.30;;
75785;SDS011;64402;44.708;37.644;2022-11-23T09:03:59;6.65;;;1.10;;
75785;SDS011;64402;44.708;37.644;2022-11-23T09:06:26;2.55;;;1.05;;
75785;SDS011;64402;44.708;37.644;2022-11-23T09:08:54;3.08;;;0.88;;
75785;SDS011;64402;44.708;37.644;2022-11-23T09:11:21;5.22;;;1.35;;
75785;SDS011;64402;44.708;37.644;2022-11-23T09:13:48;8.23;;;1.40;;
75785;SDS011;64402;44.708;37.644;2022-11-23T09:16:14;3.33;;;0.90;;
75785;SDS011;64402;44.708;37.644;2022-11-23T09:18:41;6.32;;;1.20;;
75785;SDS011;64402;44.708;37.644;2022-11-23T09:21:07;4.03;;;1.23;;
75785;SDS011;64402;44.708;37.644;2022-11-23T09:26:01;4.43;;;1.10;;
75785;SDS011;64402;44.708;37.644;2022-11-23T09:28:29;4.20;;;1.08;;
75785;SDS011;64402;44.708;37.644;2022-11-23T09:30:57;6.38;;;1.10;;
75785;SDS011;64402;44.708;37.644;2022-11-23T09:33:23;6.70;;;1.40;;
75785;SDS011;64402;44.708;37.644;2022-11-23T09:36:00;5.60;;;1.30;;
75785;SDS011;64402;44.708;37.644;2022-11-23T09:38:27;3.97;;;1.10;;
75785;SDS011;64402;44.708;37.644;2022-11-23T09:49:25;5.85;;;1.50;;
75785;SDS011;64402;44.708;37.644;2022-11-23T09:52:01;4.45;;;0.98;;
75785;SDS011;64402;44.708;37.644;2022-11-23T09:54:32;6.13;;;1.40;;
75785;SDS011;64402;44.708;37.644;2022-11-23T09:57:02;6.60;;;1.85;;
75785;SDS011;64402;44.708;37.644;2022-11-23T10:02:01;5.47;;;1.40;;
75785;SDS011;64402;44.708;37.644;2022-11-23T10:04:28;6.40;;;1.10;;
75785;SDS011;64402;44.708;37.644;2022-11-23T10:07:10;4.30;;;1.10;;
75785;SDS011;64402;44.708;37.644;2022-11-23T10:13:00;7.28;;;1.13;;
75785;SDS011;64402;44.708;37.644;2022-11-23T10:15:38;4.38;;;1.48;;
75785;SDS011;64402;44.708;37.644;2022-11-23T10:26:13;4.55;;;1.00;;
75785;SDS011;64402;44.708;37.644;2022-11-23T10:28:41;6.20;;;1.05;;
75785;SDS011;64402;44.708;37.644;2022-11-23T10:31:18;4.00;;;0.95;;
75785;SDS011;64402;44.708;37.644;2022-11-23T10:34:03;4.28;;;0.88;;
75785;SDS011;64402;44.708;37.644;2022-11-23T10:36:37;4.63;;;1.20;;
75785;SDS011;64402;44.708;37.644;2022-11-23T10:39:10;5.07;;;0.90;;
75785;SDS011;64402;44.708;37.644;2022-11-23T10:41:50;5.72;;;1.30;;
75785;SDS011;64402;44.708;37.644;2022-11-23T10:44:23;5.25;;;1.27;;
75785;SDS011;64402;44.708;37.644;2022-11-23T10:47:02;5.55;;;1.23;;
75785;SDS011;64402;44.708;37.644;2022-11-23T10:49:30;3.90;;;1.02;;
75785;SDS011;64402;44.708;37.644;2022-11-23T10:52:01;5.25;;;0.90;;
75785;SDS011;64402;44.708;37.644;2022-11-23T10:54:31;4.18;;;1.00;;
75785;SDS011;64402;44.708;37.644;2022-11-23T10:56:59;4.88;;;1.17;;
75785;SDS011;64402;44.708;37.644;2022-11-23T11:02:00;4.07;;;1.15;;
75785;SDS011;64402;44.708;37.644;2022-11-23T11:04:39;4.80;;;1.00;;
75785;SDS011;64402;44.708;37.644;2022-11-23T11:07:11;4.60;;;1.13;;
75785;SDS011;64402;44.708;37.644;2022-11-23T11:09:52;6.22;;;1.27;;
75785;SDS011;64402;44.708;37.644;2022-11-23T11:12:24;4.60;;;0.93;;
75785;SDS011;64402;44.708;37.644;2022-11-23T11:15:03;3.58;;;1.00;;
75785;SDS011;64402;44.708;37.644;2022-11-23T11:17:40;7.53;;;1.98;;
75785;SDS011;64402;44.708;37.644;2022-11-23T11:22:53;4.50;;;1.40;;
75785;SDS011;64402;44.708;37.644;2022-11-23T11:25:28;5.60;;;1.58;;
75785;SDS011;64402;44.708;37.644;2022-11-23T11:28:17;5.38;;;1.10;;
75785;SDS011;64402;44.708;37.644;2022-11-23T11:31:38;8.48;;;1.15;;
75785;SDS011;64402;44.708;37.644;2022-11-23T11:33:49;4.85;;;1.30;;
75785;SDS011;64402;44.708;37.644;2022-11-23T11:36:23;3.80;;;1.00;;
75785;SDS011;64402;44.708;37.644;2022-11-23T11:38:55;6.55;;;1.52;;
75785;SDS011;64402;44.708;37.644;2022-11-23T11:41:24;6.68;;;1.50;;
75785;SDS011;64402;44.708;37.644;2022-11-23T11:44:01;2.45;;;0.88;;
75785;SDS011;64402;44.708;37.644;2022-11-23T11:46:38;8.02;;;1.20;;
75785;SDS011;64402;44.708;37.644;2022-11-23T11:49:13;6.32;;;2.00;;
75785;SDS011;64402;44.708;37.644;2022-11-23T11:51:49;2.67;;;1.00;;
75785;SDS011;64402;44.708;37.644;2022-11-23T11:57:13;5.65;;;1.08;;
75785;SDS011;64402;44.708;37.644;2022-11-23T11:59:46;7.35;;;1.60;;
75785;SDS011;64402;44.708;37.644;2022-11-23T12:02:19;4.07;;;1.30;;
75785;SDS011;64402;44.708;37.644;2022-11-23T12:04:55;5.88;;;1.20;;
75785;SDS011;64402;44.708;37.644;2022-11-23T12:07:33;3.92;;;0.85;;
75785;SDS011;64402;44.708;37.644;2022-11-23T12:12:35;3.00;;;0.70;;
75785;SDS011;64402;44.708;37.644;2022-11-23T12:15:03;6.50;;;0.77;;
75785;SDS011;64402;44.708;37.644;2022-11-23T12:17:43;4.15;;;0.95;;
75785;SDS011;64402;44.708;37.644;2022-11-23T12:25:39;3.58;;;0.57;;
75785;SDS011;64402;44.708;37.644;2022-11-23T12:34:13;2.75;;;0.75;;
75785;SDS011;64402;44.708;37.644;2022-11-23T12:36:51;2.97;;;0.60;;
75785;SDS011;64402;44.708;37.644;2022-11-23T12:39:41;3.72;;;0.80;;
75785;SDS011;64402;44.708;37.644;2022-11-23T12:42:30;4.43;;;1.00;;
75785;SDS011;64402;44.708;37.644;2022-11-23T12:55:01;3.05;;;0.70;;
75785;SDS011;64402;44.708;37.644;2022-11-23T12:57:17;6.90;;;1.00;;
75785;SDS011;64402;44.708;37.644;2022-11-23T13:05:38;3.47;;;0.73;;
75785;SDS011;64402;44.708;37.644;2022-11-23T13:08:31;4.22;;;0.80;;
75785;SDS011;64402;44.708;37.644;2022-11-23T13:14:20;3.15;;;0.80;;
75785;SDS011;64402;44.708;37.644;2022-11-23T13:22:50;4.88;;;1.23;;
75785;SDS011;64402;44.708;37.644;2022-11-23T13:25:23;4.90;;;1.30;;
75785;SDS011;64402;44.708;37.644;2022-11-23T13:30:25;6.78;;;1.85;;
75785;SDS011;64402;44.708;37.644;2022-11-23T13:40:41;6.80;;;2.35;;
75785;SDS011;64402;44.708;37.644;2022-11-23T13:43:21;4.57;;;1.10;;
75785;SDS011;64402;44.708;37.644;2022-11-23T13:48:43;6.55;;;1.25;;
75785;SDS011;64402;44.708;37.644;2022-11-23T13:51:12;4.72;;;1.10;;
75785;SDS011;64402;44.708;37.644;2022-11-23T13:53:55;4.40;;;1.70;;
75785;SDS011;64402;44.708;37.644;2022-11-23T13:56:35;5.55;;;1.17;;
75785;SDS011;64402;44.708;37.644;2022-11-23T14:04:43;17.52;;;4.05;;
75785;SDS011;64402;44.708;37.644;2022-11-23T14:10:02;7.47;;;1.90;;
75785;SDS011;64402;44.708;37.644;2022-11-23T14:15:32;6.97;;;1.20;;
75785;SDS011;64402;44.708;37.644;2022-11-23T14:21:03;7.93;;;1.45;;
75785;SDS011;64402;44.708;37.644;2022-11-23T14:26:06;6.35;;;1.00;;
75785;SDS011;64402;44.708;37.644;2022-11-23T14:37:26;12.57;;;5.03;;
75785;SDS011;64402;44.708;37.644;2022-11-23T14:42:43;6.93;;;2.40;;
75785;SDS011;64402;44.708;37.644;2022-11-23T14:45:15;4.75;;;1.58;;
75785;SDS011;64402;44.708;37.644;2022-11-23T14:47:44;5.85;;;1.30;;
75785;SDS011;64402;44.708;37.644;2022-11-23T14:50:24;7.10;;;1.25;;
75785;SDS011;64402;44.708;37.644;2022-11-23T14:52:52;5.82;;;1.20;;
75785;SDS011;64402;44.708;37.644;2022-11-23T14:55:25;6.93;;;2.80;;
75785;SDS011;64402;44.708;37.644;2022-11-23T14:57:55;5.35;;;1.48;;
75785;SDS011;64402;44.708;37.644;2022-11-23T15:03:05;7.55;;;3.72;;
75785;SDS011;64402;44.708;37.644;2022-11-23T15:05:41;14.73;;;6.20;;
75785;SDS011;64402;44.708;37.644;2022-11-23T15:13:23;11.13;;;2.67;;
75785;SDS011;64402;44.708;37.644;2022-11-23T15:15:52;9.40;;;2.13;;
75785;SDS011;64402;44.708;37.644;2022-11-23T15:18:30;9.77;;;2.78;;
75785;SDS011;64402;44.708;37.644;2022-11-23T15:23:38;12.05;;;1.98;;
75785;SDS011;64402;44.708;37.644;2022-11-23T15:28:49;7.00;;;1.90;;
75785;SDS011;64402;44.708;37.644;2022-11-23T15:31:17;14.13;;;3.95;;
75785;SDS011;64402;44.708;37.644;2022-11-23T15:33:45;6.80;;;1.77;;
75785;SDS011;64402;44.708;37.644;2022-11-23T15:36:16;5.97;;;1.50;;
75785;SDS011;64402;44.708;37.644;2022-11-23T15:38:49;10.18;;;2.05;;
75785;SDS011;64402;44.708;37.644;2022-11-23T15:41:17;10.60;;;2.03;;
75785;SDS011;64402;44.708;37.644;2022-11-23T15:43:51;11.57;;;3.97;;
75785;SDS011;64402;44.708;37.644;2022-11-23T15:46:18;9.20;;;2.75;;
75785;SDS011;64402;44.708;37.644;2022-11-23T15:48:51;8.52;;;2.58;;
75785;SDS011;64402;44.708;37.644;2022-11-23T15:51:30;7.28;;;2.10;;
75785;SDS011;64402;44.708;37.644;2022-11-23T15:54:05;10.50;;;2.58;;
75785;SDS011;64402;44.708;37.644;2022-11-23T15:56:42;7.60;;;2.15;;
75785;SDS011;64402;44.708;37.644;2022-11-23T16:02:05;8.23;;;2.50;;
75785;SDS011;64402;44.708;37.644;2022-11-23T16:04:38;8.90;;;2.95;;
75785;SDS011;64402;44.708;37.644;2022-11-23T16:07:48;20.27;;;8.02;;
75785;SDS011;64402;44.708;37.644;2022-11-23T16:12:55;12.52;;;5.63;;
75785;SDS011;64402;44.708;37.644;2022-11-23T16:20:55;8.25;;;3.13;;
75785;SDS011;64402;44.708;37.644;2022-11-23T16:23:26;12.02;;;4.50;;
75785;SDS011;64402;44.708;37.644;2022-11-23T16:26:13;8.63;;;3.65;;
75785;SDS011;64402;44.708;37.644;2022-11-23T16:28:51;8.77;;;3.30;;
75785;SDS011;64402;44.708;37.644;2022-11-23T16:31:50;9.43;;;3.60;;
75785;SDS011;64402;44.708;37.644;2022-11-23T16:34:16;8.27;;;3.50;;
75785;SDS011;64402;44.708;37.644;2022-11-23T16:36:52;11.35;;;3.95;;
75785;SDS011;64402;44.708;37.644;2022-11-23T16:39:24;12.98;;;3.78;;
75785;SDS011;64402;44.708;37.644;2022-11-23T16:41:52;12.60;;;5.28;;
75785;SDS011;64402;44.708;37.644;2022-11-23T16:44:19;11.20;;;4.00;;
75785;SDS011;64402;44.708;37.644;2022-11-23T16:46:45;16.25;;;4.35;;
75785;SDS011;64402;44.708;37.644;2022-11-23T16:49:16;11.98;;;4.60;;
75785;SDS011;64402;44.708;37.644;2022-11-23T16:51:48;10.60;;;4.95;;
75785;SDS011;64402;44.708;37.644;2022-11-23T16:54:18;15.35;;;4.22;;
75785;SDS011;64402;44.708;37.644;2022-11-23T16:56:45;15.27;;;4.28;;
75785;SDS011;64402;44.708;37.644;2022-11-23T16:59:15;11.10;;;4.38;;
75785;SDS011;64402;44.708;37.644;2022-11-23T17:01:44;17.67;;;8.20;;
75785;SDS011;64402;44.708;37.644;2022-11-23T17:04:13;16.98;;;6.30;;
75785;SDS011;64402;44.708;37.644;2022-11-23T17:06:41;16.60;;;7.00;;
75785;SDS011;64402;44.708;37.644;2022-11-23T17:09:09;19.40;;;7.43;;